Time;durP1;ratioP1;P1;durP2;ratioP2;P2;SDS_P1;SDS_P2;PMS_P1;PMS_P2;Temp;Humidity;BMP_temperature;BMP_pressure;BME280_temperature;BME280_humidity;BME280_pressure;Samples;Min_cycle;Max_cycle;Signal;HPM_P1;HPM_P2
2022/05/22 00:01:55;;;;;;;17.88;8.60;;;9.70;99.90;;;;;;5032747;28;20061;-88
2022/05/22 00:04:21;;;;;;;15.07;7.22;;;9.60;99.90;;;;;;5050836;28;20111;-87
2022/05/22 00:06:47;;;;;;;14.63;8.50;;;9.60;99.90;;;;;;5016237;28;20049;-87
2022/05/22 00:09:13;;;;;;;23.77;8.93;;;9.60;99.90;;;;;;5032501;28;20400;-87
2022/05/22 00:11:38;;;;;;;16.83;8.48;;;8.30;99.90;;;;;;5032522;28;20102;-87
2022/05/22 00:14:04;;;;;;;16.42;8.40;;;9.80;99.90;;;;;;5050799;28;20469;-86
2022/05/22 00:16:36;;;;;;;21.58;8.43;;;9.50;99.90;;;;;;5050200;28;20497;-86
2022/05/22 00:19:09;;;;;;;20.45;8.68;;;9.50;99.90;;;;;;5033817;28;20064;-86
2022/05/22 00:21:35;;;;;;;16.30;8.00;;;9.50;99.90;;;;;;5033277;28;20057;-87
2022/05/22 00:24:01;;;;;;;20.67;8.40;;;9.50;99.90;;;;;;5032352;28;20507;-87
2022/05/22 00:26:27;;;;;;;15.45;7.68;;;9.40;99.90;;;;;;5016434;28;20049;-87
2022/05/22 00:28:52;;;;;;;17.35;8.20;;;9.40;99.90;;;;;;5032199;28;20481;-87
2022/05/22 00:31:18;;;;;;;19.20;8.88;;;9.40;99.90;;;;;;5032945;28;20049;-87
2022/05/22 00:33:44;;;;;;;16.65;9.00;;;9.40;99.90;;;;;;5048667;28;20477;-87
2022/05/22 00:36:10;;;;;;;22.08;8.48;;;9.40;99.90;;;;;;5049309;28;20055;-86
2022/05/22 00:38:35;;;;;;;18.38;8.00;;;9.40;99.90;;;;;;5048542;28;20128;-86
2022/05/22 00:41:01;;;;;;;15.05;8.25;;;9.40;99.90;;;;;;5032833;28;20057;-87
2022/05/22 00:43:40;;;;;;;18.67;8.55;;;9.30;99.90;;;;;;5032725;28;20423;-87
2022/05/22 00:46:07;;;;;;;19.45;8.50;;;9.30;99.90;;;;;;5035923;28;20449;-87
2022/05/22 00:48:34;;;;;;;18.45;8.30;;;9.30;99.90;;;;;;5027703;28;20123;-87
2022/05/22 00:51:07;;;;;;;15.93;7.45;;;9.20;99.90;;;;;;5056141;28;20622;-86
2022/05/22 00:53:35;;;;;;;21.25;8.82;;;9.20;99.90;;;;;;5055794;28;20400;-86
2022/05/22 00:56:02;;;;;;;14.63;7.80;;;9.20;99.90;;;;;;5056142;28;20071;-86
2022/05/22 00:58:28;;;;;;;18.35;8.48;;;9.20;99.90;;;;;;5055999;28;20052;-86
2022/05/22 01:00:53;;;;;;;16.52;8.25;;;9.10;99.90;;;;;;5038150;28;20408;-86
2022/05/22 01:03:26;;;;;;;21.02;8.50;;;9.10;99.90;;;;;;5056196;28;20060;-86
2022/05/22 01:05:53;;;;;;;17.45;8.05;;;9.10;99.90;;;;;;5056044;28;20084;-86
2022/05/22 01:08:18;;;;;;;17.38;8.07;;;9.10;99.90;;;;;;5055638;28;20056;-87
2022/05/22 01:10:53;;;;;;;17.85;7.93;;;9.00;99.90;;;;;;5072209;28;20056;-87
2022/05/22 01:13:21;;;;;;;18.33;8.18;;;10.00;99.90;;;;;;5056190;28;20094;-87
2022/05/22 01:15:48;;;;;;;16.90;8.48;;;9.90;99.90;;;;;;5038735;28;20049;-87
2022/05/22 01:18:14;;;;;;;17.92;8.23;;;9.00;99.90;;;;;;5056092;28;20040;-87
2022/05/22 01:20:50;;;;;;;21.77;8.25;;;9.70;99.90;;;;;;5071892;28;20478;-87
2022/05/22 01:23:16;;;;;;;20.13;8.73;;;9.00;99.90;;;;;;5052316;28;20110;-87
2022/05/22 01:25:41;;;;;;;21.35;8.40;;;9.00;99.90;;;;;;5051473;28;20056;-86
2022/05/22 01:28:09;;;;;;;15.48;8.10;;;9.00;99.90;;;;;;5035278;28;20037;-87
2022/05/22 01:30:34;;;;;;;18.38;8.32;;;8.90;99.90;;;;;;5034688;28;20048;-86
2022/05/22 01:33:00;;;;;;;21.77;7.90;;;8.90;99.90;;;;;;5052790;28;20494;-87
2022/05/22 01:35:27;;;;;;;16.25;8.40;;;8.90;99.90;;;;;;5051968;28;20504;-86
2022/05/22 01:37:53;;;;;;;12.95;7.97;;;8.80;99.90;;;;;;5051715;28;20049;-86
2022/05/22 01:40:19;;;;;;;16.20;8.48;;;8.80;99.90;;;;;;5051694;28;20045;-86
2022/05/22 01:42:45;;;;;;;17.17;8.43;;;8.80;99.90;;;;;;5034943;28;20098;-87
2022/05/22 01:45:12;;;;;;;15.73;9.10;;;8.90;99.90;;;;;;5052096;28;20048;-87
2022/05/22 01:47:38;;;;;;;15.27;8.77;;;8.80;99.90;;;;;;5051889;28;20053;-87
2022/05/22 01:50:05;;;;;;;16.27;8.45;;;8.80;99.90;;;;;;5051758;28;20594;-87
2022/05/22 01:52:30;;;;;;;21.05;10.07;;;8.70;99.90;;;;;;5052741;28;20133;-87
2022/05/22 01:54:56;;;;;;;19.10;8.50;;;8.70;99.90;;;;;;5050891;28;20137;-88
2022/05/22 01:57:22;;;;;;;22.70;10.05;;;8.70;99.90;;;;;;5051523;28;20052;-87
2022/05/22 01:59:47;;;;;;;17.73;9.10;;;8.70;99.90;;;;;;5061741;28;20029;-85
2022/05/22 02:02:13;;;;;;;17.10;9.25;;;8.70;99.90;;;;;;5066115;28;20105;-86
2022/05/22 02:04:39;;;;;;;18.42;9.15;;;8.60;99.90;;;;;;5034892;28;20059;-87
2022/05/22 02:09:48;;;;;;;23.92;11.45;;;8.60;99.90;;;;;;5050858;28;20105;-86
2022/05/22 02:12:14;;;;;;;24.52;12.10;;;9.40;99.90;;;;;;5051533;28;20044;-86
2022/05/22 02:14:40;;;;;;;22.05;11.05;;;8.60;99.90;;;;;;5051093;28;20048;-86
2022/05/22 02:17:05;;;;;;;20.65;10.55;;;8.60;99.90;;;;;;5053080;28;20069;-86
2022/05/22 02:19:31;;;;;;;22.30;11.15;;;8.60;99.90;;;;;;5027934;28;20057;-87
2022/05/22 02:21:57;;;;;;;20.70;10.93;;;8.60;99.90;;;;;;5043560;28;20049;-87
2022/05/22 02:24:22;;;;;;;24.48;11.07;;;8.60;99.90;;;;;;5057941;28;20053;-87
2022/05/22 02:26:49;;;;;;;28.10;11.07;;;8.50;99.90;;;;;;5060000;28;20594;-86
2022/05/22 02:29:15;;;;;;;18.27;10.55;;;8.50;99.90;;;;;;5039340;28;20380;-87
2022/05/22 02:31:41;;;;;;;20.75;10.45;;;8.60;99.90;;;;;;5052243;28;20098;-87
2022/05/22 02:34:06;;;;;;;23.17;10.98;;;8.50;99.90;;;;;;5051925;28;20060;-87
2022/05/22 02:36:32;;;;;;;22.35;10.48;;;8.50;99.90;;;;;;5052415;28;20107;-88
2022/05/22 02:38:58;;;;;;;23.90;10.82;;;8.50;99.90;;;;;;5018763;28;20049;-86
2022/05/22 02:41:25;;;;;;;19.52;10.20;;;8.40;99.90;;;;;;5052148;28;20084;-87
2022/05/22 02:43:51;;;;;;;21.20;11.05;;;8.60;99.90;;;;;;5051715;28;20057;-87
2022/05/22 02:46:17;;;;;;;20.98;10.68;;;8.40;99.90;;;;;;5051921;28;20129;-86
2022/05/22 02:48:43;;;;;;;18.48;9.70;;;8.30;99.90;;;;;;5051864;28;20122;-87
2022/05/22 02:51:12;;;;;;;20.90;10.82;;;8.30;99.90;;;;;;5051447;28;20469;-86
2022/05/22 02:53:38;;;;;;;18.10;10.27;;;8.60;99.90;;;;;;5050515;28;20508;-87
2022/05/22 02:56:08;;;;;;;18.35;10.48;;;8.30;99.90;;;;;;5025612;28;20113;-87
2022/05/22 02:58:34;;;;;;;22.38;9.63;;;8.30;99.90;;;;;;5053804;28;20051;-87
2022/05/22 03:00:59;;;;;;;19.45;9.82;;;8.30;99.90;;;;;;5053036;28;20048;-87
2022/05/22 03:03:25;;;;;;;18.60;10.15;;;8.30;99.90;;;;;;5070283;28;20064;-86
2022/05/22 03:08:35;;;;;;;15.65;9.82;;;8.30;99.90;;;;;;5070084;28;20181;-87
2022/05/22 03:11:04;;;;;;;18.23;10.25;;;8.20;99.90;;;;;;5053214;28;20143;-87
2022/05/22 03:13:30;;;;;;;27.33;11.13;;;8.20;99.90;;;;;;5053480;28;20052;-87
2022/05/22 03:15:55;;;;;;;24.73;10.48;;;8.20;99.90;;;;;;5069776;28;20067;-87
2022/05/22 03:18:21;;;;;;;17.70;10.15;;;8.60;99.90;;;;;;5053340;28;20048;-86
2022/05/22 03:20:46;;;;;;;19.95;10.18;;;8.20;99.90;;;;;;5053682;28;20055;-86
2022/05/22 03:23:13;;;;;;;21.05;11.27;;;8.20;99.90;;;;;;5053074;28;20047;-87
2022/05/22 03:25:39;;;;;;;21.63;11.27;;;8.20;99.90;;;;;;5070929;28;20095;-85
2022/05/22 03:28:05;;;;;;;21.08;10.82;;;8.20;99.90;;;;;;5036173;28;20437;-86
2022/05/22 03:30:30;;;;;;;20.70;11.48;;;8.20;99.90;;;;;;5036765;28;20135;-88
2022/05/22 03:32:56;;;;;;;24.15;11.18;;;8.20;99.90;;;;;;5052832;28;20048;-86
2022/05/22 03:35:22;;;;;;;24.60;11.38;;;8.20;99.90;;;;;;5071292;28;20392;-87
2022/05/22 03:37:48;;;;;;;19.10;11.10;;;8.20;99.90;;;;;;5069722;28;20396;-87
2022/05/22 03:40:14;;;;;;;23.08;10.75;;;8.20;99.90;;;;;;5036445;28;20052;-87
2022/05/22 03:42:40;;;;;;;24.55;11.68;;;8.20;99.90;;;;;;5052925;28;20484;-87
2022/05/22 03:45:06;;;;;;;17.48;10.60;;;8.30;99.90;;;;;;5069093;28;20048;-87
2022/05/22 03:47:31;;;;;;;23.45;11.18;;;8.30;99.90;;;;;;5069447;28;20056;-86
2022/05/22 03:49:57;;;;;;;21.40;10.75;;;8.40;99.90;;;;;;5070447;28;20430;-87
2022/05/22 03:52:23;;;;;;;21.45;10.43;;;8.40;99.90;;;;;;5069534;28;20075;-87
2022/05/22 03:54:48;;;;;;;19.88;11.48;;;8.50;99.90;;;;;;5052854;28;20040;-87
2022/05/22 03:57:14;;;;;;;17.95;10.77;;;9.10;99.90;;;;;;5052118;28;20473;-87
2022/05/22 03:59:40;;;;;;;20.00;10.85;;;8.40;99.90;;;;;;5052433;28;20052;-86
2022/05/22 04:02:06;;;;;;;17.75;10.77;;;8.50;99.90;;;;;;5052068;28;20084;-87
2022/05/22 04:04:32;;;;;;;19.10;10.93;;;8.60;99.90;;;;;;5069603;28;20072;-88
2022/05/22 04:06:57;;;;;;;22.02;11.18;;;8.60;99.90;;;;;;5019466;28;20545;-87
2022/05/22 04:09:23;;;;;;;18.63;10.98;;;8.60;99.90;;;;;;5052875;28;20099;-87
2022/05/22 04:11:49;;;;;;;24.33;11.70;;;8.70;99.90;;;;;;5036428;28;20067;-87
2022/05/22 04:14:18;;;;;;;20.15;10.63;;;8.70;99.90;;;;;;5069563;28;20084;-87
2022/05/22 04:16:43;;;;;;;22.48;11.20;;;8.80;99.90;;;;;;5067712;28;20036;-85
2022/05/22 04:19:09;;;;;;;17.15;10.30;;;8.90;99.90;;;;;;5082956;28;20033;-87
2022/05/22 04:21:35;;;;;;;17.17;10.38;;;9.10;99.90;;;;;;5071877;28;20135;-87
2022/05/22 04:26:44;;;;;;;17.25;9.95;;;9.20;99.90;;;;;;5060717;28;20053;-88
2022/05/22 04:29:10;;;;;;;18.20;9.95;;;9.30;99.90;;;;;;5074652;28;20048;-87
2022/05/22 04:31:36;;;;;;;18.90;10.02;;;9.50;99.90;;;;;;5074848;28;20055;-87
2022/05/22 04:34:01;;;;;;;16.33;9.48;;;9.70;99.90;;;;;;5075189;28;20059;-86
2022/05/22 04:36:27;;;;;;;18.30;10.52;;;9.80;99.90;;;;;;5072937;28;20425;-87
2022/05/22 04:38:53;;;;;;;20.50;9.93;;;10.10;99.90;;;;;;5072989;28;20056;-87
2022/05/22 04:41:18;;;;;;;18.75;10.30;;;10.60;99.90;;;;;;5073161;28;20053;-87
2022/05/22 04:43:44;;;;;;;19.35;9.18;;;11.00;99.90;;;;;;5056994;28;20052;-87
2022/05/22 04:46:09;;;;;;;12.30;7.57;;;11.40;99.90;;;;;;5072676;28;20052;-86
2022/05/22 04:48:35;;;;;;;19.02;7.47;;;11.60;99.90;;;;;;5072635;28;20439;-87
2022/05/22 04:51:01;;;;;;;15.32;7.45;;;11.90;99.90;;;;;;5072511;28;20515;-85
2022/05/22 04:53:27;;;;;;;12.82;7.45;;;12.40;99.90;;;;;;5055919;28;20090;-87
2022/05/22 04:55:53;;;;;;;16.65;8.25;;;12.50;99.90;;;;;;5055829;28;20127;-88
2022/05/22 04:58:19;;;;;;;17.02;8.30;;;12.70;99.90;;;;;;5073487;28;20124;-87
2022/05/22 05:00:45;;;;;;;17.52;7.50;;;12.90;99.90;;;;;;5072351;28;20554;-86
2022/05/22 05:03:11;;;;;;;15.63;7.85;;;13.00;99.90;;;;;;5032694;28;20065;-87
2022/05/22 05:05:37;;;;;;;15.00;7.60;;;13.40;99.90;;;;;;5049367;28;20459;-87
2022/05/22 05:08:03;;;;;;;16.30;7.63;;;13.70;99.90;;;;;;5055356;28;20049;-85
2022/05/22 05:10:28;;;;;;;18.90;7.85;;;14.00;99.90;;;;;;5055871;28;20044;-88
2022/05/22 05:12:54;;;;;;;12.30;7.25;;;14.40;99.90;;;;;;5072264;28;20045;-87
2022/05/22 05:15:20;;;;;;;14.23;7.53;;;14.70;99.90;;;;;;5072259;28;20079;-86
2022/05/22 05:17:46;;;;;;;18.38;7.60;;;15.00;99.90;;;;;;5038994;28;20134;-88
2022/05/22 05:20:13;;;;;;;12.82;6.70;;;15.50;99.90;;;;;;5055045;28;20076;-87
2022/05/22 05:22:40;;;;;;;17.70;7.72;;;15.60;99.90;;;;;;5071954;28;20052;-87
2022/05/22 05:25:06;;;;;;;13.80;6.25;;;16.10;99.90;;;;;;5055428;28;20123;-86
2022/05/22 05:27:32;;;;;;;15.70;6.50;;;16.60;99.90;;;;;;5055188;28;20136;-87
2022/05/22 05:29:58;;;;;;;13.98;6.35;;;16.70;99.90;;;;;;5071804;28;20455;-87
2022/05/22 05:32:24;;;;;;;13.55;7.10;;;16.70;99.90;;;;;;5072652;28;20091;-87
2022/05/22 05:35:01;;;;;;;17.67;6.47;;;17.00;99.90;;;;;;5055155;28;20123;-87
2022/05/22 05:37:27;;;;;;;12.35;6.13;;;17.50;99.90;;;;;;5054737;28;20114;-86
2022/05/22 05:39:53;;;;;;;13.00;6.13;;;17.10;99.90;;;;;;5071966;28;20048;-86
2022/05/22 05:42:18;;;;;;;14.32;6.47;;;17.70;99.90;;;;;;5054482;28;20056;-86
2022/05/22 05:44:44;;;;;;;15.00;6.00;;;17.60;99.90;;;;;;5059938;28;20044;-86
2022/05/22 05:47:10;;;;;;;13.13;7.13;;;18.20;99.90;;;;;;5059778;28;20048;-86
2022/05/22 05:49:36;;;;;;;14.77;6.13;;;18.40;99.90;;;;;;5042605;28;20055;-86
2022/05/22 05:52:03;;;;;;;13.90;5.75;;;18.10;99.90;;;;;;5059663;28;20044;-87
2022/05/22 05:54:29;;;;;;;14.18;5.95;;;18.50;99.90;;;;;;5058184;28;20056;-87
2022/05/22 05:56:54;;;;;;;15.70;6.55;;;19.00;99.90;;;;;;5056627;28;20187;-87
2022/05/22 05:59:20;;;;;;;10.65;5.43;;;19.30;99.90;;;;;;5054550;28;20048;-87
2022/05/22 06:01:46;;;;;;;14.43;6.65;;;19.50;99.90;;;;;;5071347;28;20052;-87
2022/05/22 06:04:11;;;;;;;14.68;6.50;;;19.30;99.90;;;;;;5054952;28;20065;-88
2022/05/22 06:06:37;;;;;;;15.13;6.10;;;19.70;99.90;;;;;;5072089;28;20090;-87
2022/05/22 06:09:03;;;;;;;13.05;6.13;;;20.10;99.90;;;;;;5071305;28;20037;-86
2022/05/22 06:11:28;;;;;;;14.85;5.78;;;19.90;99.90;;;;;;5054264;28;20097;-87
2022/05/22 06:13:54;;;;;;;13.27;5.38;;;20.40;99.90;;;;;;5071366;28;20106;-86
2022/05/22 06:16:20;;;;;;;14.20;5.57;;;20.20;99.90;;;;;;5071733;28;20168;-87
2022/05/22 06:18:45;;;;;;;10.93;5.68;;;20.50;99.90;;;;;;5070963;28;20488;-87
2022/05/22 06:21:17;;;;;;;12.88;5.72;;;20.20;99.90;;;;;;5054539;28;20055;-85
2022/05/22 06:23:43;;;;;;;12.55;5.53;;;20.90;99.90;;;;;;5055183;28;20094;-87
2022/05/22 06:26:09;;;;;;;14.50;5.05;;;20.80;99.90;;;;;;5070921;28;20055;-87
2022/05/22 06:28:34;;;;;;;12.65;4.88;;;20.70;99.90;;;;;;5054187;28;20380;-87
2022/05/22 06:31:01;;;;;;;15.25;5.72;;;20.30;99.90;;;;;;5054409;28;20040;-86
2022/05/22 06:33:27;;;;;;;17.15;6.07;;;20.10;99.90;;;;;;5053768;28;20420;-86
2022/05/22 06:35:52;;;;;;;11.95;4.88;;;20.60;99.90;;;;;;5054319;28;20154;-86
2022/05/22 06:41:06;;;;;;;15.63;5.40;;;20.70;99.90;;;;;;5071862;28;20118;-87
2022/05/22 06:43:32;;;;;;;14.73;4.70;;;20.60;99.90;;;;;;5053227;28;20052;-86
2022/05/22 06:45:58;;;;;;;16.00;4.82;;;20.90;99.90;;;;;;5053615;28;20101;-87
2022/05/22 06:48:23;;;;;;;12.63;4.50;;;21.10;99.90;;;;;;5053443;28;20439;-88
2022/05/22 06:50:50;;;;;;;12.23;4.40;;;20.40;99.90;;;;;;5070435;28;20056;-86
2022/05/22 06:53:15;;;;;;;13.32;4.47;;;20.80;99.90;;;;;;5053874;28;20139;-85
2022/05/22 06:55:41;;;;;;;13.00;4.10;;;21.20;99.90;;;;;;5070256;28;20136;-87
2022/05/22 06:58:07;;;;;;;12.35;4.47;;;20.90;99.90;;;;;;5070289;28;20396;-87
2022/05/22 07:00:33;;;;;;;11.07;4.30;;;21.60;99.90;;;;;;5052928;28;20055;-87
2022/05/22 07:02:58;;;;;;;14.77;4.63;;;21.90;99.90;;;;;;5069852;28;20056;-88
2022/05/22 07:05:24;;;;;;;13.63;3.83;;;21.50;99.90;;;;;;5071189;28;20048;-88
2022/05/22 07:07:50;;;;;;;7.45;3.20;;;22.00;99.90;;;;;;5051859;28;20138;-89
2022/05/22 07:10:16;;;;;;;9.07;3.35;;;21.80;99.90;;;;;;5046063;28;20051;-89
2022/05/22 07:12:41;;;;;;;9.98;3.45;;;21.90;99.90;;;;;;5059287;28;20055;-87
2022/05/22 07:15:07;;;;;;;9.45;2.85;;;22.00;99.90;;;;;;5069456;28;20045;-89
2022/05/22 07:17:33;;;;;;;8.90;3.10;;;22.00;99.90;;;;;;5070207;28;20052;-89
2022/05/22 07:19:59;;;;;;;9.13;2.80;;;21.40;99.90;;;;;;5068345;28;20472;-90
2022/05/22 07:22:25;;;;;;;8.10;2.97;;;21.90;99.90;;;;;;5050428;28;20135;-91
2022/05/22 07:24:51;;;;;;;9.70;2.90;;;22.00;99.90;;;;;;5052115;28;20125;-90
2022/05/22 07:27:16;;;;;;;9.32;2.78;;;21.30;99.90;;;;;;5050487;28;20071;-91
2022/05/22 07:29:43;;;;;;;7.75;2.67;;;21.80;99.90;;;;;;5050866;28;20045;-90
2022/05/22 07:32:09;;;;;;;9.80;2.78;;;22.00;99.90;;;;;;5069269;28;20477;-90
2022/05/22 07:34:35;;;;;;;7.85;2.40;;;21.90;99.90;;;;;;5052421;28;20065;-91
2022/05/22 07:37:05;;;;;;;8.65;2.90;;;22.40;99.90;;;;;;5046466;28;20032;-87
2022/05/22 07:39:30;;;;;;;9.70;3.33;;;22.10;99.90;;;;;;5070995;28;20073;-89
2022/05/22 07:41:56;;;;;;;8.50;3.50;;;21.80;99.90;;;;;;5052526;28;20052;-88
2022/05/22 07:44:22;;;;;;;9.15;2.97;;;21.70;99.90;;;;;;5069400;28;20052;-85
2022/05/22 07:46:48;;;;;;;7.47;2.22;;;21.80;99.90;;;;;;5070594;28;20059;-90
2022/05/22 07:50:16;;;;;;;10.20;3.13;;;22.60;99.90;;;;;;5070928;28;20548;-90
2022/05/22 07:52:04;;;;;;;7.88;2.95;;;22.20;99.90;;;;;;5070940;28;20044;-88
2022/05/22 07:54:34;;;;;;;7.07;3.00;;;22.20;99.90;;;;;;5053612;28;20523;-87
2022/05/22 07:57:00;;;;;;;10.85;3.05;;;22.60;99.90;;;;;;5052685;28;20499;-89
2022/05/22 07:59:26;;;;;;;8.65;3.17;;;22.60;99.90;;;;;;5069541;28;20044;-90
2022/05/22 08:01:51;;;;;;;7.63;2.70;;;21.70;99.90;;;;;;5043907;28;20497;-89
2022/05/22 08:04:17;;;;;;;7.68;2.70;;;21.90;99.90;;;;;;5069018;28;20128;-91
2022/05/22 08:06:42;;;;;;;11.68;3.10;;;21.90;99.90;;;;;;5057875;28;20427;-90
2022/05/22 08:09:08;;;;;;;11.20;3.40;;;21.70;99.90;;;;;;5049735;28;20067;-90
2022/05/22 08:11:34;;;;;;;8.27;2.60;;;22.10;99.90;;;;;;5039833;28;20408;-93
2022/05/22 08:13:59;;;;;;;10.18;2.72;;;21.90;99.90;;;;;;5051051;28;20099;-93
2022/05/22 08:16:25;;;;;;;10.50;2.63;;;21.80;99.90;;;;;;5049976;28;20099;-93
2022/05/22 08:18:51;;;;;;;9.13;2.40;;;22.60;99.90;;;;;;5027016;28;20045;-93
2022/05/22 08:21:16;;;;;;;7.25;2.10;;;22.70;99.90;;;;;;5069165;28;20059;-91
2022/05/22 08:23:42;;;;;;;6.80;2.33;;;22.10;99.90;;;;;;5052022;28;20127;-89
2022/05/22 08:26:08;;;;;;;8.85;2.38;;;21.60;99.90;;;;;;5051415;28;20140;-93
2022/05/22 08:28:33;;;;;;;5.75;2.40;;;21.70;99.90;;;;;;5064286;28;20148;-94
2022/05/22 08:30:59;;;;;;;7.18;2.20;;;21.50;99.90;;;;;;5055386;28;20128;-94
2022/05/22 08:33:25;;;;;;;9.05;2.50;;;21.80;99.90;;;;;;5071217;28;20502;-92
2022/05/22 08:35:51;;;;;;;7.50;2.40;;;22.10;99.90;;;;;;5017591;28;20477;-91
2022/05/22 08:38:17;;;;;;;6.95;2.45;;;22.60;99.90;;;;;;5064230;28;20048;-90
2022/05/22 08:41:00;;;;;;;5.72;2.33;;;23.00;99.90;;;;;;5066158;28;20068;-90
2022/05/22 08:43:56;;;;;;;9.13;2.72;;;21.70;99.90;;;;;;5051496;28;20057;-90
2022/05/22 08:46:31;;;;;;;12.13;3.67;;;22.10;99.90;;;;;;5054368;28;20132;-89
2022/05/22 08:48:58;;;;;;;8.30;2.58;;;22.00;99.90;;;;;;5052220;28;20093;-91
2022/05/22 08:51:28;;;;;;;7.72;2.28;;;21.30;99.90;;;;;;5052309;28;20480;-91
2022/05/22 08:53:58;;;;;;;8.20;2.40;;;22.30;99.90;;;;;;5051430;28;20048;-90
2022/05/22 08:59:31;;;;;;;7.65;2.72;;;22.30;99.90;;;;;;5045410;28;20088;-89
2022/05/22 09:02:22;;;;;;;8.45;2.58;;;22.70;99.90;;;;;;5036001;28;20104;-90
2022/05/22 09:05:01;;;;;;;7.15;2.67;;;22.60;99.90;;;;;;5053124;28;20112;-89
2022/05/22 09:07:51;;;;;;;10.45;2.95;;;23.10;99.90;;;;;;5040080;28;20063;-88
2022/05/22 09:10:40;;;;;;;6.45;2.53;;;23.10;99.90;;;;;;5046399;28;20146;-92
2022/05/22 09:13:27;;;;;;;6.88;2.30;;;23.20;99.90;;;;;;5031091;28;20124;-94
2022/05/22 09:16:05;;;;;;;5.03;2.05;;;24.40;99.90;;;;;;5058183;28;20041;-94
2022/05/22 09:18:51;;;;;;;8.23;3.03;;;23.00;99.90;;;;;;5041336;28;20060;-91
2022/05/22 09:21:25;;;;;;;5.00;2.20;;;22.60;99.90;;;;;;5022588;28;20057;-92
2022/05/22 09:24:05;;;;;;;8.10;2.50;;;21.70;99.90;;;;;;5060392;28;20040;-93
2022/05/22 09:26:54;;;;;;;8.98;2.50;;;22.20;99.90;;;;;;5052144;28;20058;-90
2022/05/22 09:29:38;;;;;;;7.72;2.40;;;22.90;99.90;;;;;;5073553;28;20502;-92
2022/05/22 09:32:29;;;;;;;8.50;2.33;;;23.40;99.90;;;;;;5064363;28;20116;-95
2022/05/22 09:35:20;;;;;;;8.52;2.08;;;23.40;99.90;;;;;;5085470;28;20084;-92
2022/05/22 09:38:08;;;;;;;7.07;2.22;;;23.00;99.90;;;;;;5112809;23;20118;-93
2022/05/22 09:40:50;;;;;;;6.65;2.22;;;22.50;99.90;;;;;;5039124;28;20481;-92
2022/05/22 09:43:34;;;;;;;7.70;2.22;;;22.40;99.90;;;;;;5003912;28;20384;-93
2022/05/22 09:46:12;;;;;;;5.13;1.83;;;21.60;99.90;;;;;;5047125;28;20044;-92
2022/05/22 09:48:50;;;;;;;8.60;2.60;;;21.20;99.90;;;;;;5033693;28;20049;-92
2022/05/22 09:51:27;;;;;;;7.55;2.33;;;21.00;99.90;;;;;;5032313;28;20064;-91
2022/05/22 09:54:13;;;;;;;8.43;2.00;;;20.70;99.90;;;;;;5035929;28;20053;-89
2022/05/22 09:57:05;;;;;;;6.03;1.85;;;20.50;99.90;;;;;;5055129;28;20053;-89
2022/05/22 09:59:52;;;;;;;4.05;1.90;;;21.00;99.90;;;;;;5032560;28;20048;-90
2022/05/22 10:02:42;;;;;;;6.60;1.70;;;22.60;99.90;;;;;;5052458;28;20635;-89
2022/05/22 10:05:35;;;;;;;4.65;1.92;;;23.50;99.90;;;;;;5032322;28;20113;-93
2022/05/22 10:08:13;;;;;;;6.57;1.85;;;23.50;99.90;;;;;;5034227;28;20052;-89
2022/05/22 10:11:04;;;;;;;4.55;1.65;;;24.50;99.90;;;;;;5034153;28;20124;-91
2022/05/22 10:14:09;;;;;;;5.85;2.00;;;24.60;99.70;;;;;;5029744;28;20057;-90
2022/05/22 10:17:08;;;;;;;6.35;1.90;;;23.60;99.90;;;;;;5028210;28;20489;-93
2022/05/22 10:19:40;;;;;;;4.63;1.98;;;24.50;99.90;;;;;;5033671;28;20076;-90
2022/05/22 10:22:22;;;;;;;5.93;1.70;;;23.70;99.90;;;;;;5030300;28;20493;-91
2022/05/22 10:25:27;;;;;;;7.00;2.13;;;24.00;99.90;;;;;;5050150;28;20427;-91
2022/05/22 10:27:56;;;;;;;4.15;1.88;;;22.80;99.90;;;;;;5062420;28;20160;-91
2022/05/22 10:30:38;;;;;;;6.07;1.85;;;22.60;99.90;;;;;;5060953;28;20123;-92
2022/05/22 10:33:08;;;;;;;5.32;1.70;;;22.60;99.90;;;;;;5034477;28;20048;-88
2022/05/22 10:35:50;;;;;;;5.00;1.73;;;22.80;99.90;;;;;;5030665;28;20057;-89
2022/05/22 10:38:28;;;;;;;7.78;2.00;;;22.30;99.90;;;;;;5016150;28;20057;-91
2022/05/22 10:43:44;;;;;;;7.05;2.05;;;22.00;99.90;;;;;;5034208;28;20122;-90
2022/05/22 10:46:10;;;;;;;4.70;1.63;;;22.80;99.90;;;;;;4999678;28;20036;-91
2022/05/22 10:48:49;;;;;;;5.78;1.70;;;22.70;99.90;;;;;;5018030;28;20071;-95
2022/05/22 10:51:26;;;;;;;6.28;1.73;;;22.80;99.90;;;;;;5017993;28;20499;-90
2022/05/22 10:53:57;;;;;;;6.68;1.90;;;23.20;99.90;;;;;;5001194;28;20476;-92
2022/05/22 10:56:27;;;;;;;8.82;2.10;;;23.90;99.90;;;;;;5016525;28;20044;-92
2022/05/22 10:59:04;;;;;;;6.57;1.73;;;22.80;99.90;;;;;;5029974;28;20052;-89
2022/05/22 11:01:38;;;;;;;7.78;2.10;;;22.40;99.90;;;;;;5014486;28;20136;-90
2022/05/22 11:04:12;;;;;;;6.88;1.77;;;22.20;99.90;;;;;;4997266;28;20096;-90
2022/05/22 11:06:39;;;;;;;5.65;1.85;;;21.80;99.90;;;;;;5013946;28;20397;-91
2022/05/22 11:09:06;;;;;;;4.88;1.58;;;22.20;99.90;;;;;;4996724;28;20521;-89
2022/05/22 11:11:34;;;;;;;4.90;1.77;;;22.20;99.90;;;;;;5013529;28;20049;-90
2022/05/22 11:14:11;;;;;;;6.47;1.92;;;22.40;99.90;;;;;;4981918;28;20136;-90
2022/05/22 11:16:37;;;;;;;6.30;2.10;;;22.70;99.90;;;;;;4997706;28;20046;-89
2022/05/22 11:19:20;;;;;;;7.63;1.73;;;22.70;99.90;;;;;;5014322;28;20115;-90
2022/05/22 11:22:16;;;;;;;5.93;2.10;;;22.60;99.90;;;;;;5016280;28;20053;-90
2022/05/22 11:24:58;;;;;;;4.18;1.40;;;22.30;99.90;;;;;;5031115;28;20049;-90
2022/05/22 11:27:42;;;;;;;6.75;1.70;;;23.10;99.90;;;;;;4983349;28;20440;-90
2022/05/22 11:30:18;;;;;;;5.35;1.48;;;23.40;99.90;;;;;;5012268;28;20067;-90
2022/05/22 11:32:58;;;;;;;6.07;1.58;;;22.90;99.90;;;;;;5029832;28;20596;-90
2022/05/22 11:35:25;;;;;;;7.60;2.10;;;22.40;99.90;;;;;;5030162;28;20397;-89
2022/05/22 11:38:06;;;;;;;4.05;1.83;;;22.30;99.90;;;;;;5012903;28;20053;-90
2022/05/22 11:41:05;;;;;;;5.75;1.80;;;22.40;99.90;;;;;;5012249;28;20050;-90
2022/05/22 11:43:44;;;;;;;5.90;1.65;;;22.40;99.90;;;;;;5029332;28;20053;-90
2022/05/22 11:46:26;;;;;;;6.22;1.77;;;22.10;99.90;;;;;;5028204;28;20045;-90
2022/05/22 11:49:07;;;;;;;4.30;2.35;;;21.40;99.90;;;;;;5005080;28;20041;-91
2022/05/22 11:51:56;;;;;;;5.28;1.67;;;20.60;99.90;;;;;;5046703;28;20037;-91
2022/05/22 11:54:38;;;;;;;4.75;1.42;;;21.00;99.90;;;;;;5064040;28;20372;-92
2022/05/22 11:57:25;;;;;;;4.32;1.77;;;20.90;99.90;;;;;;5031972;28;20053;-90
2022/05/22 12:00:14;;;;;;;7.45;2.00;;;21.00;99.90;;;;;;5032681;28;20041;-92
2022/05/22 12:03:06;;;;;;;6.00;1.73;;;21.00;99.90;;;;;;5029422;28;20029;-88
2022/05/22 12:05:43;;;;;;;6.38;1.90;;;21.10;99.90;;;;;;5062891;28;20064;-91
2022/05/22 12:08:34;;;;;;;5.47;1.55;;;21.10;99.90;;;;;;5030593;28;20041;-90
2022/05/22 12:11:02;;;;;;;5.55;1.88;;;21.20;99.90;;;;;;5057584;28;20037;-89
2022/05/22 12:13:53;;;;;;;6.22;1.83;;;21.00;99.90;;;;;;5053331;28;20089;-89
2022/05/22 12:16:48;;;;;;;4.47;1.58;;;20.70;99.90;;;;;;5019402;28;20044;-93
2022/05/22 12:19:37;;;;;;;5.90;1.80;;;19.60;99.90;;;;;;5050697;28;20053;-90
2022/05/22 12:22:16;;;;;;;4.65;1.80;;;20.90;99.90;;;;;;5032277;28;20132;-91
2022/05/22 12:24:57;;;;;;;6.63;1.92;;;21.10;99.90;;;;;;5030202;28;20077;-88
2022/05/22 12:27:25;;;;;;;6.50;2.13;;;21.10;99.90;;;;;;5013530;28;20049;-90
2022/05/22 12:29:59;;;;;;;5.32;1.67;;;21.40;99.90;;;;;;5028597;28;20044;-89
2022/05/22 12:32:26;;;;;;;4.63;1.77;;;21.70;99.90;;;;;;5064540;28;20045;-88
2022/05/22 12:34:52;;;;;;;5.38;2.00;;;21.50;99.90;;;;;;5051986;28;20049;-89
2022/05/22 12:38:03;;;;;;;8.73;2.58;;;21.90;99.90;;;;;;4981725;28;1092653;-88
2022/05/22 12:40:39;;;;;;;5.80;1.85;;;21.80;99.90;;;;;;5056015;28;20061;-90
2022/05/22 12:43:05;;;;;;;6.43;2.13;;;22.10;99.90;;;;;;5012275;28;20067;-87
2022/05/22 12:45:31;;;;;;;6.50;1.88;;;22.20;99.90;;;;;;5029124;28;20051;-89
2022/05/22 12:48:11;;;;;;;5.13;1.60;;;22.30;99.90;;;;;;5026287;28;20053;-90
2022/05/22 12:50:48;;;;;;;5.25;1.90;;;22.00;99.90;;;;;;5009747;28;20048;-89
2022/05/22 12:53:35;;;;;;;4.72;1.73;;;21.50;99.90;;;;;;5074000;28;20103;-88
2022/05/22 12:56:25;;;;;;;7.65;2.00;;;21.10;99.90;;;;;;5037859;28;20139;-88
2022/05/22 12:58:50;;;;;;;8.02;2.03;;;21.40;99.90;;;;;;5029787;28;20057;-88
2022/05/22 13:01:39;;;;;;;9.40;2.10;;;21.40;99.90;;;;;;5031927;28;20072;-89
2022/05/22 13:04:31;;;;;;;5.97;2.88;;;21.20;99.90;;;;;;5033537;28;20073;-88
2022/05/22 13:07:12;;;;;;;7.25;2.10;;;21.40;99.90;;;;;;5056883;28;20381;-86
2022/05/22 13:09:47;;;;;;;7.15;2.05;;;21.10;99.90;;;;;;5052475;28;20507;-89
2022/05/22 13:12:13;;;;;;;6.95;1.60;;;21.10;99.90;;;;;;5035557;28;20053;-89
2022/05/22 13:14:41;;;;;;;5.93;1.73;;;21.30;99.90;;;;;;5069282;28;20148;-90
2022/05/22 13:17:08;;;;;;;9.43;2.13;;;21.00;99.90;;;;;;5052392;28;20048;-89
2022/05/22 13:19:34;;;;;;;7.95;1.80;;;20.90;99.90;;;;;;5036041;28;20044;-89